Time;durP1;ratioP1;P1;durP2;ratioP2;P2;SDS_P1;SDS_P2;PMS_P1;PMS_P2;Temp;Humidity;BMP_temperature;BMP_pressure;BME280_temperature;BME280_humidity;BME280_pressure;Samples;Min_cycle;Max_cycle;Signal;HPM_P1;HPM_P2
2024/04/07 00:01:44;;;;;;;2.00;1.25;;;;;;;;;;5011843;28;20612;-67
2024/04/07 00:04:10;;;;;;;2.90;1.30;;;;;;;;;;5012144;28;20045;-68
2024/04/07 00:06:37;;;;;;;1.15;1.00;;;;;;;;;;5009026;28;20049;-68
2024/04/07 00:09:03;;;;;;;2.75;1.20;;;;;;;;;;5014496;28;20045;-67
2024/04/07 00:11:29;;;;;;;2.63;1.20;;;;;;;;;;5010388;28;20099;-66
2024/04/07 00:13:56;;;;;;;3.60;1.00;;;;;;;;;;5012082;28;20041;-67
2024/04/07 00:16:22;;;;;;;2.30;1.25;;;;;;;;;;5011031;28;20053;-66
2024/04/07 00:18:49;;;;;;;2.28;1.02;;;;;;;;;;5013120;28;20060;-67
2024/04/07 00:21:15;;;;;;;2.38;1.40;;;;;;;;;;5018014;28;20049;-68
2024/04/07 00:23:41;;;;;;;2.83;1.17;;;;;;;;;;5011674;28;20042;-68
2024/04/07 00:26:07;;;;;;;2.70;1.08;;;;;;;;;;5020237;28;20516;-67
2024/04/07 00:28:33;;;;;;;4.95;1.10;;;;;;;;;;5014616;28;20049;-68
2024/04/07 00:31:01;;;;;;;1.10;1.00;;;;;;;;;;5013990;28;20037;-67
2024/04/07 00:33:28;;;;;;;1.95;1.13;;;;;;;;;;5010119;28;20042;-67
2024/04/07 00:35:54;;;;;;;2.13;1.30;;;;;;;;;;5010301;28;20529;-67
2024/04/07 00:38:20;;;;;;;3.50;1.17;;;;;;;;;;5012147;28;20105;-67
2024/04/07 00:40:47;;;;;;;3.20;1.23;;;;;;;;;;5011968;28;20077;-67
2024/04/07 00:43:13;;;;;;;2.42;1.20;;;;;;;;;;5009857;28;20064;-67
2024/04/07 00:45:39;;;;;;;2.42;1.10;;;;;;;;;;5011848;28;20049;-67
2024/04/07 00:48:09;;;;;;;3.65;1.23;;;;;;;;;;5014343;28;20042;-67
2024/04/07 00:50:36;;;;;;;2.90;1.25;;;;;;;;;;5005700;28;20044;-67
2024/04/07 00:53:02;;;;;;;2.00;1.10;;;;;;;;;;5011657;28;20068;-67
2024/04/07 00:55:29;;;;;;;3.70;1.23;;;;;;;;;;5011435;28;20504;-68
2024/04/07 00:57:56;;;;;;;2.15;0.90;;;;;;;;;;5014889;28;20416;-66
2024/04/07 01:00:22;;;;;;;2.95;1.10;;;;;;;;;;4991638;28;20046;-67
2024/04/07 01:02:48;;;;;;;1.80;1.00;;;;;;;;;;5012168;28;20057;-67
2024/04/07 01:05:17;;;;;;;2.15;0.93;;;;;;;;;;5010113;28;20072;-66
2024/04/07 01:07:43;;;;;;;1.83;1.08;;;;;;;;;;5009562;28;20416;-67
2024/04/07 01:10:09;;;;;;;1.33;1.17;;;;;;;;;;5017063;28;20029;-67
2024/04/07 01:12:35;;;;;;;2.47;1.23;;;;;;;;;;5012494;28;20050;-67
2024/04/07 01:15:02;;;;;;;5.05;2.90;;;;;;;;;;5013960;28;20049;-67
2024/04/07 01:17:30;;;;;;;6.82;2.40;;;;;;;;;;5016743;28;20045;-67
2024/04/07 01:19:56;;;;;;;5.65;3.15;;;;;;;;;;5009698;28;20456;-66
2024/04/07 01:22:25;;;;;;;1.90;1.25;;;;;;;;;;5012123;28;20037;-66
2024/04/07 01:24:51;;;;;;;2.72;1.27;;;;;;;;;;5009857;28;20045;-66
2024/04/07 01:27:17;;;;;;;6.30;1.00;;;;;;;;;;5007963;28;20037;-66
2024/04/07 01:29:43;;;;;;;1.05;0.88;;;;;;;;;;5021046;28;20049;-67
2024/04/07 01:32:12;;;;;;;3.53;1.13;;;;;;;;;;5010249;28;20054;-66
2024/04/07 01:34:38;;;;;;;3.90;1.10;;;;;;;;;;5010741;28;20045;-66
2024/04/07 01:37:05;;;;;;;2.70;1.20;;;;;;;;;;5005351;28;20042;-66
2024/04/07 01:39:31;;;;;;;1.67;1.00;;;;;;;;;;5008925;28;20058;-67
2024/04/07 01:41:57;;;;;;;2.72;1.30;;;;;;;;;;5009365;28;20057;-67
2024/04/07 01:44:23;;;;;;;2.05;1.10;;;;;;;;;;5011647;28;20386;-67
2024/04/07 01:46:49;;;;;;;2.88;1.40;;;;;;;;;;5009530;28;20038;-66
2024/04/07 01:49:18;;;;;;;3.17;1.20;;;;;;;;;;5014272;28;20037;-66
2024/04/07 01:51:44;;;;;;;5.25;1.65;;;;;;;;;;4990815;28;20038;-66
2024/04/07 01:54:10;;;;;;;4.75;1.48;;;;;;;;;;5007970;28;20050;-67
2024/04/07 01:56:36;;;;;;;5.45;1.58;;;;;;;;;;5007493;28;20060;-66
2024/04/07 01:59:03;;;;;;;2.67;1.30;;;;;;;;;;5013066;28;20065;-67
2024/04/07 02:01:29;;;;;;;4.93;1.48;;;;;;;;;;5007692;28;20038;-68
2024/04/07 02:03:55;;;;;;;1.65;1.23;;;;;;;;;;5009552;28;20421;-68
2024/04/07 02:06:21;;;;;;;2.00;1.10;;;;;;;;;;5009686;28;20064;-66
2024/04/07 02:08:48;;;;;;;4.80;1.27;;;;;;;;;;5015798;28;20046;-67
2024/04/07 02:11:14;;;;;;;2.42;1.20;;;;;;;;;;5015310;28;20041;-67
2024/04/07 02:13:43;;;;;;;2.70;1.10;;;;;;;;;;5010324;28;20041;-68
2024/04/07 02:16:10;;;;;;;1.65;1.10;;;;;;;;;;5012487;28;20034;-68
2024/04/07 02:18:36;;;;;;;2.08;1.20;;;;;;;;;;5011749;28;20038;-68
2024/04/07 02:21:02;;;;;;;2.53;1.15;;;;;;;;;;5013226;28;20049;-67
2024/04/07 02:23:28;;;;;;;3.45;1.17;;;;;;;;;;5015873;28;20056;-67
2024/04/07 02:25:54;;;;;;;3.75;1.20;;;;;;;;;;5009225;28;20064;-67
2024/04/07 02:28:21;;;;;;;1.83;1.30;;;;;;;;;;5013246;28;20036;-67
2024/04/07 02:30:47;;;;;;;2.85;1.23;;;;;;;;;;5007928;28;20061;-67
2024/04/07 02:33:13;;;;;;;1.88;1.10;;;;;;;;;;5009911;28;20409;-65
2024/04/07 02:35:39;;;;;;;2.95;1.40;;;;;;;;;;5010801;28;20050;-67
2024/04/07 02:38:05;;;;;;;3.47;1.55;;;;;;;;;;5009197;28;20057;-67
2024/04/07 02:40:31;;;;;;;4.38;1.60;;;;;;;;;;5005637;28;20049;-67
2024/04/07 02:42:57;;;;;;;4.45;1.50;;;;;;;;;;5009333;28;20420;-67
2024/04/07 02:48:08;;;;;;;2.25;1.23;;;;;;;;;;5006521;28;20054;-66
2024/04/07 02:50:38;;;;;;;2.58;1.27;;;;;;;;;;5008896;28;20046;-67
2024/04/07 02:53:04;;;;;;;4.53;1.73;;;;;;;;;;5010781;28;20037;-67
2024/04/07 02:55:30;;;;;;;3.05;1.63;;;;;;;;;;5007129;28;20072;-67
2024/04/07 02:57:56;;;;;;;3.75;1.30;;;;;;;;;;5014034;28;20053;-66
2024/04/07 03:00:22;;;;;;;2.58;1.60;;;;;;;;;;5009209;28;20045;-67
2024/04/07 03:02:48;;;;;;;2.38;1.40;;;;;;;;;;5009245;28;20034;-66
2024/04/07 03:05:18;;;;;;;3.65;1.42;;;;;;;;;;5007858;28;20034;-66
2024/04/07 03:07:44;;;;;;;;;;;;;;;;;;5009910;28;20046;-66
2024/04/07 03:10:10;;;;;;;5.57;2.72;;;;;;;;;;5008751;28;20328;-67
2024/04/07 03:12:36;;;;;;;3.05;1.63;;;;;;;;;;5013379;28;20053;-66
2024/04/07 03:15:03;;;;;;;2.72;1.70;;;;;;;;;;5011344;28;20050;-68
2024/04/07 03:17:30;;;;;;;4.10;1.42;;;;;;;;;;5010571;28;20787;-66
2024/04/07 03:19:58;;;;;;;3.75;1.65;;;;;;;;;;5015160;28;20042;-66
2024/04/07 03:22:24;;;;;;;5.17;1.33;;;;;;;;;;5011780;28;20048;-67
2024/04/07 03:24:50;;;;;;;3.08;1.52;;;;;;;;;;5011989;28;20448;-67
2024/04/07 03:27:17;;;;;;;3.03;1.40;;;;;;;;;;5012627;28;20421;-65
2024/04/07 03:29:43;;;;;;;1.90;1.30;;;;;;;;;;5015905;28;20068;-66
2024/04/07 03:32:09;;;;;;;3.38;1.40;;;;;;;;;;5011691;28;20030;-67
2024/04/07 03:34:35;;;;;;;3.13;1.35;;;;;;;;;;5013517;28;20436;-66
2024/04/07 03:37:03;;;;;;;3.47;1.52;;;;;;;;;;5009307;28;20034;-66
2024/04/07 03:39:29;;;;;;;5.68;1.70;;;;;;;;;;5015447;28;20054;-67
2024/04/07 03:41:55;;;;;;;2.47;1.40;;;;;;;;;;5012243;28;20041;-66
2024/04/07 03:44:21;;;;;;;5.05;1.35;;;;;;;;;;5014473;28;20053;-66
2024/04/07 03:46:50;;;;;;;4.47;1.33;;;;;;;;;;5013573;28;20397;-66
2024/04/07 03:49:18;;;;;;;3.53;1.20;;;;;;;;;;4995196;28;20034;-66
2024/04/07 03:51:47;;;;;;;2.60;1.33;;;;;;;;;;5014909;28;20057;-66
2024/04/07 03:54:13;;;;;;;7.25;1.60;;;;;;;;;;5016069;28;20041;-66
2024/04/07 03:56:39;;;;;;;6.55;1.55;;;;;;;;;;5015272;28;20045;-67
2024/04/07 03:59:05;;;;;;;6.35;1.65;;;;;;;;;;5015542;28;20062;-67
2024/04/07 04:01:31;;;;;;;6.30;1.85;;;;;;;;;;5011403;28;20042;-67
2024/04/07 04:03:57;;;;;;;7.30;1.30;;;;;;;;;;5010182;28;20049;-67
2024/04/07 04:06:25;;;;;;;9.25;1.67;;;;;;;;;;5013001;28;20065;-66
2024/04/07 04:08:51;;;;;;;8.05;1.77;;;;;;;;;;5017958;28;20037;-67
2024/04/07 04:11:17;;;;;;;6.85;1.63;;;;;;;;;;5010086;28;20045;-67
2024/04/07 04:13:46;;;;;;;4.82;2.28;;;;;;;;;;5015961;28;20049;-67
2024/04/07 04:16:12;;;;;;;5.87;2.33;;;;;;;;;;5012038;28;20038;-67
2024/04/07 04:18:38;;;;;;;5.07;2.22;;;;;;;;;;5015285;28;20061;-67
2024/04/07 04:21:07;;;;;;;4.70;2.70;;;;;;;;;;5014238;28;20053;-67
2024/04/07 04:23:33;;;;;;;3.45;2.50;;;;;;;;;;5017706;28;20061;-67
2024/04/07 04:26:00;;;;;;;6.15;2.40;;;;;;;;;;5011814;28;20054;-67
2024/04/07 04:28:26;;;;;;;4.80;3.15;;;;;;;;;;5017266;28;20033;-66
2024/04/07 04:30:56;;;;;;;2.95;2.20;;;;;;;;;;5010459;28;20049;-67
2024/04/07 04:33:23;;;;;;;5.63;2.45;;;;;;;;;;5010714;28;20041;-67
2024/04/07 04:35:49;;;;;;;3.30;2.05;;;;;;;;;;5011494;28;20393;-66
2024/04/07 04:38:16;;;;;;;5.15;2.20;;;;;;;;;;5010551;28;20034;-66
2024/04/07 04:40:56;;;;;;;3.50;2.25;;;;;;;;;;5010332;28;20038;-67
2024/04/07 04:43:22;;;;;;;2.72;2.00;;;;;;;;;;5011018;28;20053;-66
2024/04/07 04:46:00;;;;;;;4.32;2.10;;;;;;;;;;5011649;28;20433;-66
2024/04/07 04:48:26;;;;;;;3.28;1.90;;;;;;;;;;5014029;28;20029;-67
2024/04/07 04:50:56;;;;;;;3.08;1.77;;;;;;;;;;5012037;28;20425;-67
2024/04/07 04:53:22;;;;;;;;;;;;;;;;;;5010038;28;20052;-67
2024/04/07 04:55:48;;;;;;;3.95;2.10;;;;;;;;;;5031816;28;20339;-66
2024/04/07 04:58:14;;;;;;;4.20;2.50;;;;;;;;;;5016597;28;20049;-65
2024/04/07 05:00:40;;;;;;;7.40;2.33;;;;;;;;;;5010322;28;21187;-66
2024/04/07 05:03:06;;;;;;;5.28;1.98;;;;;;;;;;5014953;28;20030;-66
2024/04/07 05:05:32;;;;;;;5.68;2.38;;;;;;;;;;5010735;28;20057;-66
2024/04/07 05:07:58;;;;;;;2.60;1.90;;;;;;;;;;5012474;28;20492;-65
2024/04/07 05:10:24;;;;;;;3.40;2.10;;;;;;;;;;5016527;28;20041;-64
2024/04/07 05:12:50;;;;;;;4.03;1.92;;;;;;;;;;5011571;28;20543;-65
2024/04/07 05:15:16;;;;;;;3.47;1.90;;;;;;;;;;5009327;28;20509;-64
2024/04/07 05:17:46;;;;;;;5.72;1.90;;;;;;;;;;5019772;28;20072;-65
2024/04/07 05:20:15;;;;;;;2.45;1.77;;;;;;;;;;5015317;28;20061;-67
2024/04/07 05:22:42;;;;;;;2.92;1.73;;;;;;;;;;5016550;28;20060;-64
2024/04/07 05:25:09;;;;;;;6.45;2.05;;;;;;;;;;5017625;28;20046;-67
2024/04/07 05:27:36;;;;;;;4.03;1.67;;;;;;;;;;4997837;28;20404;-64
2024/04/07 05:30:06;;;;;;;4.82;1.58;;;;;;;;;;5009368;28;20046;-64
2024/04/07 05:32:32;;;;;;;5.80;1.90;;;;;;;;;;5014066;28;20034;-65
2024/04/07 05:34:59;;;;;;;5.82;2.03;;;;;;;;;;5011266;28;20058;-65
2024/04/07 05:37:26;;;;;;;6.35;1.75;;;;;;;;;;5006221;28;20444;-64
2024/04/07 05:39:53;;;;;;;4.15;1.63;;;;;;;;;;5008950;28;20412;-64
2024/04/07 05:42:19;;;;;;;12.18;3.03;;;;;;;;;;5007861;28;20033;-64
2024/04/07 05:44:45;;;;;;;5.85;1.90;;;;;;;;;;5007806;28;20046;-66
2024/04/07 05:47:12;;;;;;;4.75;2.00;;;;;;;;;;5002462;28;20045;-64
2024/04/07 05:49:38;;;;;;;5.43;1.75;;;;;;;;;;5011061;28;20072;-65
2024/04/07 05:52:05;;;;;;;7.75;1.70;;;;;;;;;;5013990;28;20038;-65
2024/04/07 05:54:31;;;;;;;15.23;3.80;;;;;;;;;;5006762;28;20040;-66
2024/04/07 05:56:57;;;;;;;8.02;2.28;;;;;;;;;;5005758;28;20042;-64
2024/04/07 05:59:24;;;;;;;6.18;1.25;;;;;;;;;;5013114;28;20038;-64
2024/04/07 06:01:51;;;;;;;5.15;1.70;;;;;;;;;;5011194;28;20540;-65
2024/04/07 06:04:17;;;;;;;12.48;2.28;;;;;;;;;;5010036;28;20050;-64
2024/04/07 06:06:43;;;;;;;7.95;1.73;;;;;;;;;;5010666;28;20050;-65
2024/04/07 06:09:09;;;;;;;10.43;1.80;;;;;;;;;;5011103;28;20034;-64
2024/04/07 06:11:36;;;;;;;10.43;2.65;;;;;;;;;;5014040;28;20022;-65
2024/04/07 06:14:03;;;;;;;6.35;1.95;;;;;;;;;;5015378;28;20053;-65
2024/04/07 06:16:29;;;;;;;9.38;2.33;;;;;;;;;;5011169;28;20061;-65
2024/04/07 06:18:56;;;;;;;7.43;1.60;;;;;;;;;;5011580;28;20053;-64
2024/04/07 06:21:25;;;;;;;7.60;1.60;;;;;;;;;;5010308;28;20041;-65
2024/04/07 06:23:51;;;;;;;8.10;2.22;;;;;;;;;;5009688;28;20054;-67
2024/04/07 06:26:17;;;;;;;5.80;1.70;;;;;;;;;;5011296;28;20045;-66
2024/04/07 06:28:44;;;;;;;9.90;2.53;;;;;;;;;;4982041;28;20045;-66
2024/04/07 06:31:10;;;;;;;10.48;2.15;;;;;;;;;;5007134;28;20536;-66
2024/04/07 06:33:36;;;;;;;9.27;1.50;;;;;;;;;;5008541;28;20041;-66
2024/04/07 06:36:02;;;;;;;4.53;1.55;;;;;;;;;;5011523;28;20041;-65
2024/04/07 06:38:29;;;;;;;5.55;1.38;;;;;;;;;;5009454;28;20054;-65
2024/04/07 06:40:55;;;;;;;8.65;1.50;;;;;;;;;;5009202;28;20405;-65
2024/04/07 06:43:21;;;;;;;11.75;2.13;;;;;;;;;;5012236;28;20037;-67
2024/04/07 06:45:47;;;;;;;7.15;1.70;;;;;;;;;;5008861;28;20042;-66
2024/04/07 06:48:13;;;;;;;7.82;1.65;;;;;;;;;;4991137;28;20149;-66
2024/04/07 06:50:39;;;;;;;7.57;1.60;;;;;;;;;;5012643;28;20044;-64
2024/04/07 06:53:05;;;;;;;11.40;1.83;;;;;;;;;;5008755;28;20056;-64
2024/04/07 06:55:32;;;;;;;10.23;1.58;;;;;;;;;;5008425;28;20385;-65
2024/04/07 06:57:58;;;;;;;10.65;2.50;;;;;;;;;;5013349;28;20046;-65
2024/04/07 07:00:24;;;;;;;10.63;1.75;;;;;;;;;;5011553;28;20429;-65
2024/04/07 07:02:50;;;;;;;10.30;1.70;;;;;;;;;;5012836;28;20272;-66
2024/04/07 07:05:16;;;;;;;12.60;1.90;;;;;;;;;;5014983;28;20054;-66
2024/04/07 07:07:42;;;;;;;14.73;2.25;;;;;;;;;;5012763;28;20060;-66
2024/04/07 07:10:09;;;;;;;8.60;1.58;;;;;;;;;;5010147;28;20045;-66
2024/04/07 07:12:35;;;;;;;10.45;2.17;;;;;;;;;;5007399;28;20531;-65
2024/04/07 07:15:01;;;;;;;14.38;1.98;;;;;;;;;;5009434;28;20049;-66
2024/04/07 07:17:27;;;;;;;16.67;1.73;;;;;;;;;;5008566;28;20054;-66
2024/04/07 07:19:54;;;;;;;10.38;1.55;;;;;;;;;;5010509;28;20050;-66
2024/04/07 07:22:20;;;;;;;13.38;1.85;;;;;;;;;;5006535;28;20042;-65
2024/04/07 07:24:46;;;;;;;11.25;2.25;;;;;;;;;;5011083;28;20045;-66
2024/04/07 07:27:12;;;;;;;7.13;1.55;;;;;;;;;;5014041;28;20054;-66
2024/04/07 07:29:38;;;;;;;7.65;1.58;;;;;;;;;;5007821;28;20042;-64
2024/04/07 07:32:05;;;;;;;5.93;1.70;;;;;;;;;;5012295;28;20043;-66
2024/04/07 07:34:31;;;;;;;6.88;1.60;;;;;;;;;;5009025;28;20053;-65
2024/04/07 07:36:58;;;;;;;10.13;1.88;;;;;;;;;;5010312;28;20053;-68
2024/04/07 07:39:24;;;;;;;11.73;2.42;;;;;;;;;;5025840;28;20420;-65
2024/04/07 07:41:56;;;;;;;13.82;1.60;;;;;;;;;;5008552;28;20044;-67
2024/04/07 07:44:23;;;;;;;10.52;2.00;;;;;;;;;;5010444;28;20038;-66
2024/04/07 07:46:49;;;;;;;7.78;1.67;;;;;;;;;;5009634;28;20056;-67
2024/04/07 07:49:15;;;;;;;11.77;1.73;;;;;;;;;;5009520;28;20050;-66
2024/04/07 07:51:41;;;;;;;12.88;1.70;;;;;;;;;;5009030;28;20042;-65
2024/04/07 07:54:07;;;;;;;9.27;1.48;;;;;;;;;;5025311;28;20045;-69
2024/04/07 07:56:34;;;;;;;14.55;1.88;;;;;;;;;;5013844;28;20420;-66
2024/04/07 07:59:00;;;;;;;9.77;2.03;;;;;;;;;;5012595;28;20056;-67
2024/04/07 08:01:26;;;;;;;12.10;1.73;;;;;;;;;;5005197;28;20038;-68
2024/04/07 08:03:52;;;;;;;8.95;1.35;;;;;;;;;;5004147;28;20054;-65
2024/04/07 08:06:19;;;;;;;11.52;1.83;;;;;;;;;;5007634;28;20053;-63
2024/04/07 08:08:45;;;;;;;11.15;1.98;;;;;;;;;;5004836;28;20033;-67
2024/04/07 08:11:11;;;;;;;8.45;1.85;;;;;;;;;;5009534;28;20038;-65
2024/04/07 08:13:37;;;;;;;10.27;1.77;;;;;;;;;;5011335;28;20061;-65
2024/04/07 08:16:03;;;;;;;9.65;1.95;;;;;;;;;;5010664;28;20042;-66
2024/04/07 08:18:30;;;;;;;10.35;1.80;;;;;;;;;;5011291;28;20041;-66
2024/04/07 08:20:56;;;;;;;11.10;2.03;;;;;;;;;;5008295;28;20045;-67
2024/04/07 08:23:22;;;;;;;13.48;2.55;;;;;;;;;;5008169;28;20057;-68
2024/04/07 08:25:48;;;;;;;11.05;1.80;;;;;;;;;;5011640;28;20061;-68
2024/04/07 08:28:14;;;;;;;9.55;2.30;;;;;;;;;;5013008;28;20397;-65
2024/04/07 08:30:40;;;;;;;11.32;1.85;;;;;;;;;;5015680;28;20038;-66
2024/04/07 08:33:08;;;;;;;7.85;2.00;;;;;;;;;;5017888;28;20386;-67
2024/04/07 08:35:34;;;;;;;8.93;2.00;;;;;;;;;;5013193;28;20045;-66
2024/04/07 08:38:00;;;;;;;13.52;2.05;;;;;;;;;;5004009;28;20056;-66
2024/04/07 08:40:26;;;;;;;11.23;1.85;;;;;;;;;;5013913;28;20054;-64
2024/04/07 08:42:54;;;;;;;12.63;1.73;;;;;;;;;;5015943;28;20042;-65
2024/04/07 08:45:21;;;;;;;10.63;1.67;;;;;;;;;;5012324;28;20145;-65
2024/04/07 08:47:47;;;;;;;8.27;1.55;;;;;;;;;;5012890;28;20520;-66
2024/04/07 08:50:14;;;;;;;7.55;1.60;;;;;;;;;;5015143;28;20042;-65
2024/04/07 08:52:44;;;;;;;10.40;1.70;;;;;;;;;;5015152;28;20045;-65
2024/04/07 08:55:10;;;;;;;10.88;2.05;;;;;;;;;;5014897;28;20052;-66
2024/04/07 08:57:39;;;;;;;12.38;1.77;;;;;;;;;;5012110;28;20054;-65
2024/04/07 09:00:08;;;;;;;11.65;2.13;;;;;;;;;;5012355;28;20034;-65
2024/04/07 09:02:36;;;;;;;8.43;2.03;;;;;;;;;;5012615;28;20100;-64
2024/04/07 09:05:03;;;;;;;6.65;2.15;;;;;;;;;;5012612;28;20033;-65
2024/04/07 09:07:29;;;;;;;9.48;2.35;;;;;;;;;;5011905;28;20053;-65
2024/04/07 09:09:55;;;;;;;11.57;2.17;;;;;;;;;;5006552;28;20058;-65
2024/04/07 09:12:22;;;;;;;7.80;2.22;;;;;;;;;;5004512;28;20049;-64
2024/04/07 09:14:49;;;;;;;9.48;2.00;;;;;;;;;;5012315;28;20485;-64
2024/04/07 09:17:15;;;;;;;9.65;2.00;;;;;;;;;;5009234;28;20053;-66
2024/04/07 09:19:41;;;;;;;9.55;2.05;;;;;;;;;;5012810;28;20056;-64
2024/04/07 09:22:08;;;;;;;15.65;2.78;;;;;;;;;;5013559;28;20034;-64
2024/04/07 09:24:36;;;;;;;13.13;2.63;;;;;;;;;;5008510;28;20038;-64
2024/04/07 09:27:09;;;;;;;7.80;2.90;;;;;;;;;;5009790;28;20029;-64
2024/04/07 09:29:38;;;;;;;11.68;2.20;;;;;;;;;;5009110;28;20049;-66
2024/04/07 09:32:05;;;;;;;14.10;2.40;;;;;;;;;;5010234;28;20046;-66
2024/04/07 09:34:35;;;;;;;7.72;2.10;;;;;;;;;;5010308;28;20050;-65
2024/04/07 09:37:02;;;;;;;11.05;2.72;;;;;;;;;;5007603;28;20034;-66
2024/04/07 09:39:28;;;;;;;8.02;2.35;;;;;;;;;;5012708;28;20049;-64
2024/04/07 09:41:58;;;;;;;9.52;2.22;;;;;;;;;;5009492;28;20116;-64
2024/04/07 09:44:33;;;;;;;10.35;1.88;;;;;;;;;;5009075;28;20037;-64
2024/04/07 09:47:08;;;;;;;8.93;1.80;;;;;;;;;;5011592;28;20377;-64
2024/04/07 09:49:36;;;;;;;9.52;1.70;;;;;;;;;;5007898;28;20045;-63
2024/04/07 09:52:04;;;;;;;9.75;2.50;;;;;;;;;;5008012;28;20137;-64
2024/04/07 09:54:40;;;;;;;10.95;1.83;;;;;;;;;;5008744;28;20057;-64
2024/04/07 09:57:10;;;;;;;15.88;2.05;;;;;;;;;;5008709;28;20042;-64
2024/04/07 09:59:42;;;;;;;5.43;1.70;;;;;;;;;;5008297;28;20046;-63
2024/04/07 10:02:11;;;;;;;10.77;2.05;;;;;;;;;;5011750;28;20038;-64
2024/04/07 10:04:42;;;;;;;10.15;2.08;;;;;;;;;;5024045;28;20057;-63
2024/04/07 10:07:11;;;;;;;9.93;1.70;;;;;;;;;;5010241;28;20042;-63
2024/04/07 10:09:39;;;;;;;9.13;1.63;;;;;;;;;;5007345;28;20068;-64
2024/04/07 10:12:05;;;;;;;7.30;1.83;;;;;;;;;;5008835;28;20053;-64
2024/04/07 10:14:41;;;;;;;7.75;1.77;;;;;;;;;;5008917;28;20069;-64
2024/04/07 10:17:10;;;;;;;9.13;1.77;;;;;;;;;;5004611;28;20377;-64
2024/04/07 10:19:43;;;;;;;11.30;2.10;;;;;;;;;;5014472;28;20049;-65
2024/04/07 10:22:11;;;;;;;12.75;2.55;;;;;;;;;;5008315;28;20397;-64
2024/04/07 10:24:37;;;;;;;13.02;2.20;;;;;;;;;;5007020;28;20052;-65
2024/04/07 10:27:08;;;;;;;12.65;2.13;;;;;;;;;;5008321;28;20034;-63
2024/04/07 10:29:34;;;;;;;8.90;1.60;;;;;;;;;;5008806;28;20033;-64
2024/04/07 10:32:03;;;;;;;9.30;1.52;;;;;;;;;;5008408;28;20044;-64
2024/04/07 10:34:29;;;;;;;12.75;2.10;;;;;;;;;;5010002;28;20030;-64
2024/04/07 10:36:56;;;;;;;12.63;2.05;;;;;;;;;;5008774;28;20050;-64
2024/04/07 10:39:23;;;;;;;8.43;1.77;;;;;;;;;;5007257;28;20417;-65
2024/04/07 10:41:50;;;;;;;8.95;1.60;;;;;;;;;;5007080;28;20040;-65
2024/04/07 10:44:19;;;;;;;10.93;2.08;;;;;;;;;;5007267;28;20042;-63
2024/04/07 10:46:45;;;;;;;8.13;2.00;;;;;;;;;;5007453;28;20045;-65
2024/04/07 10:49:11;;;;;;;9.77;2.00;;;;;;;;;;5011968;28;20057;-63
2024/04/07 10:51:37;;;;;;;14.93;2.20;;;;;;;;;;5007262;28;20049;-64
2024/04/07 10:54:05;;;;;;;13.45;1.80;;;;;;;;;;5011804;28;20401;-64
2024/04/07 10:56:32;;;;;;;10.95;2.00;;;;;;;;;;5004214;28;20061;-64
2024/04/07 10:59:00;;;;;;;15.00;2.38;;;;;;;;;;5010663;28;20046;-65
2024/04/07 11:01:27;;;;;;;9.30;1.93;;;;;;;;;;5008772;28;20050;-64
2024/04/07 11:03:58;;;;;;;9.98;1.80;;;;;;;;;;5012481;28;20045;-65
2024/04/07 11:06:26;;;;;;;8.75;1.60;;;;;;;;;;5015509;28;20041;-63
2024/04/07 11:08:52;;;;;;;11.15;2.00;;;;;;;;;;5007640;28;20057;-64
2024/04/07 11:11:21;;;;;;;8.80;1.50;;;;;;;;;;5004428;28;20049;-64
2024/04/07 11:13:48;;;;;;;;;;;;;;;;;;5005644;28;20621;-66
2024/04/07 11:16:14;;;;;;;7.82;1.77;;;;;;;;;;5008423;28;19913;-64
2024/04/07 11:18:41;;;;;;;11.55;1.80;;;;;;;;;;5008776;28;20508;-65
2024/04/07 11:21:07;;;;;;;14.38;1.95;;;;;;;;;;5006121;28;20038;-64
2024/04/07 11:23:33;;;;;;;8.50;1.70;;;;;;;;;;4990758;28;20048;-66
2024/04/07 11:26:00;;;;;;;11.13;2.20;;;;;;;;;;5008615;28;20401;-64
2024/04/07 11:28:26;;;;;;;8.13;2.85;;;;;;;;;;5008609;28;20409;-65
2024/04/07 11:30:56;;;;;;;17.70;4.07;;;;;;;;;;5008158;28;20049;-64
2024/04/07 11:33:23;;;;;;;8.50;1.73;;;;;;;;;;5011092;28;20021;-64
2024/04/07 11:35:52;;;;;;;8.38;1.88;;;;;;;;;;5009211;28;20057;-64
2024/04/07 11:38:18;;;;;;;9.48;2.45;;;;;;;;;;5009597;28;20034;-65
2024/04/07 11:40:45;;;;;;;13.25;2.28;;;;;;;;;;5008087;28;20049;-66
2024/04/07 11:43:11;;;;;;;12.23;2.22;;;;;;;;;;5011828;28;20056;-65
2024/04/07 11:45:40;;;;;;;12.80;1.90;;;;;;;;;;5009126;28;20050;-65
2024/04/07 11:48:10;;;;;;;9.70;1.90;;;;;;;;;;5011427;28;20038;-65
2024/04/07 11:50:36;;;;;;;9.95;2.50;;;;;;;;;;5004104;28;20038;-63
2024/04/07 11:53:02;;;;;;;10.73;2.53;;;;;;;;;;5011104;28;20045;-65
2024/04/07 11:55:29;;;;;;;6.68;1.60;;;;;;;;;;5013792;28;20042;-65
2024/04/07 11:57:55;;;;;;;9.23;2.25;;;;;;;;;;5012600;28;20060;-65
2024/04/07 12:00:22;;;;;;;14.70;2.47;;;;;;;;;;5008009;28;20034;-66
2024/04/07 12:02:48;;;;;;;7.68;1.73;;;;;;;;;;5014926;28;20050;-64
2024/04/07 12:05:14;;;;;;;9.75;2.38;;;;;;;;;;5012061;28;20049;-64
2024/04/07 12:07:41;;;;;;;8.75;1.80;;;;;;;;;;5016479;28;20046;-64
2024/04/07 12:10:07;;;;;;;9.65;1.63;;;;;;;;;;5013947;28;20046;-63
2024/04/07 12:12:33;;;;;;;7.80;2.00;;;;;;;;;;5012760;28;21999;-66
2024/04/07 12:14:59;;;;;;;9.15;2.05;;;;;;;;;;5011366;28;20405;-66
2024/04/07 12:17:26;;;;;;;6.30;1.77;;;;;;;;;;5010729;28;20049;-66
2024/04/07 12:19:52;;;;;;;8.05;1.73;;;;;;;;;;5009487;28;20050;-66
2024/04/07 12:22:21;;;;;;;9.60;2.40;;;;;;;;;;5011887;28;20045;-64
2024/04/07 12:24:48;;;;;;;8.73;2.20;;;;;;;;;;5011203;28;20049;-65
2024/04/07 12:27:14;;;;;;;15.88;2.88;;;;;;;;;;5011785;28;20430;-64
2024/04/07 12:29:41;;;;;;;11.00;1.88;;;;;;;;;;5011745;28;20072;-64
2024/04/07 12:32:08;;;;;;;11.68;2.08;;;;;;;;;;5012992;28;20029;-65
2024/04/07 12:34:34;;;;;;;10.63;2.50;;;;;;;;;;5012161;28;20062;-65
2024/04/07 12:37:00;;;;;;;9.52;2.35;;;;;;;;;;5014246;28;20041;-64
2024/04/07 12:39:27;;;;;;;15.38;2.00;;;;;;;;;;5013017;28;20125;-65
2024/04/07 12:41:53;;;;;;;14.27;2.30;;;;;;;;;;5013886;28;20044;-64
2024/04/07 12:44:19;;;;;;;7.28;2.17;;;;;;;;;;5015635;28;20060;-65
2024/04/07 12:46:46;;;;;;;16.42;2.28;;;;;;;;;;5011153;28;20466;-64
2024/04/07 12:49:13;;;;;;;8.18;1.90;;;;;;;;;;5010812;28;20057;-66
2024/04/07 12:51:40;;;;;;;9.85;2.42;;;;;;;;;;5012344;28;20045;-63
2024/04/07 12:54:07;;;;;;;14.40;2.15;;;;;;;;;;5013055;28;20037;-65
2024/04/07 12:56:34;;;;;;;8.65;1.85;;;;;;;;;;5010354;28;21994;-66
2024/04/07 12:59:01;;;;;;;11.60;2.40;;;;;;;;;;5010739;28;20412;-65
2024/04/07 13:01:27;;;;;;;9.07;1.80;;;;;;;;;;5008568;28;20061;-66
2024/04/07 13:03:54;;;;;;;13.30;2.20;;;;;;;;;;5008736;28;20099;-65
2024/04/07 13:06:20;;;;;;;13.90;2.42;;;;;;;;;;5010277;28;20061;-65
2024/04/07 13:08:47;;;;;;;8.63;1.95;;;;;;;;;;5013672;28;20052;-65
2024/04/07 13:11:13;;;;;;;7.25;1.92;;;;;;;;;;5009610;28;20077;-65
2024/04/07 13:13:40;;;;;;;9.95;2.42;;;;;;;;;;5016811;28;20663;-65
2024/04/07 13:16:07;;;;;;;17.20;2.40;;;;;;;;;;5010998;28;20046;-65
2024/04/07 13:18:34;;;;;;;9.48;2.15;;;;;;;;;;5008908;28;20034;-65
2024/04/07 13:21:00;;;;;;;13.98;2.13;;;;;;;;;;5008314;28;20045;-65
2024/04/07 13:23:26;;;;;;;8.20;2.28;;;;;;;;;;5009730;28;20379;-65
2024/04/07 13:25:53;;;;;;;12.65;2.42;;;;;;;;;;5009900;28;20064;-66
2024/04/07 13:28:19;;;;;;;14.70;2.67;;;;;;;;;;5010812;28;20028;-65
2024/04/07 13:30:46;;;;;;;11.32;2.17;;;;;;;;;;5011523;28;20117;-65
2024/04/07 13:33:13;;;;;;;10.43;2.15;;;;;;;;;;5013577;28;20366;-64
2024/04/07 13:35:40;;;;;;;11.18;2.30;;;;;;;;;;5013418;28;20046;-64
2024/04/07 13:38:06;;;;;;;10.40;2.13;;;;;;;;;;4997198;28;20071;-65
2024/04/07 13:40:32;;;;;;;17.20;2.67;;;;;;;;;;5008876;28;20034;-64
2024/04/07 13:42:58;;;;;;;12.38;2.63;;;;;;;;;;5015781;28;20397;-64
2024/04/07 13:45:24;;;;;;;11.30;2.42;;;;;;;;;;5011473;28;20050;-64
2024/04/07 13:47:52;;;;;;;11.50;2.63;;;;;;;;;;5009877;28;20375;-65
2024/04/07 13:50:18;;;;;;;10.02;2.40;;;;;;;;;;5010537;28;20041;-65
2024/04/07 13:52:48;;;;;;;12.00;2.22;;;;;;;;;;5010369;28;20058;-66
2024/04/07 13:55:15;;;;;;;7.55;2.03;;;;;;;;;;5009526;28;20496;-65
2024/04/07 13:57:41;;;;;;;7.68;2.30;;;;;;;;;;5012514;28;20049;-64
2024/04/07 14:00:10;;;;;;;8.80;2.47;;;;;;;;;;5011477;28;20058;-64
2024/04/07 14:02:40;;;;;;;11.55;2.50;;;;;;;;;;5010481;28;20061;-64
2024/04/07 14:05:06;;;;;;;9.93;2.60;;;;;;;;;;5017421;28;20049;-65
2024/04/07 14:07:34;;;;;;;11.00;2.70;;;;;;;;;;5015926;28;20045;-65
2024/04/07 14:10:00;;;;;;;17.50;2.38;;;;;;;;;;5011245;28;20060;-64
2024/04/07 14:12:26;;;;;;;12.30;2.67;;;;;;;;;;5010512;28;20485;-64
2024/04/07 14:14:52;;;;;;;8.40;2.08;;;;;;;;;;5010925;28;20060;-65
2024/04/07 14:17:18;;;;;;;13.50;2.60;;;;;;;;;;5009813;28;20053;-66
2024/04/07 14:19:44;;;;;;;8.93;2.53;;;;;;;;;;5009191;28;20050;-66
2024/04/07 14:22:10;;;;;;;9.20;2.80;;;;;;;;;;5008908;28;20052;-66
2024/04/07 14:24:36;;;;;;;11.38;2.65;;;;;;;;;;5009710;28;20037;-65
2024/04/07 14:27:05;;;;;;;11.40;2.20;;;;;;;;;;5007137;28;20045;-66
2024/04/07 14:29:31;;;;;;;9.45;2.40;;;;;;;;;;5009057;28;20049;-65
2024/04/07 14:31:57;;;;;;;11.10;2.35;;;;;;;;;;5008758;28;20041;-65
2024/04/07 14:34:23;;;;;;;9.27;1.95;;;;;;;;;;4989564;28;20053;-65
2024/04/07 14:36:49;;;;;;;11.52;2.70;;;;;;;;;;5008899;28;20029;-64
2024/04/07 14:39:15;;;;;;;10.52;2.60;;;;;;;;;;5007634;28;20037;-65
2024/04/07 14:41:41;;;;;;;14.80;3.10;;;;;;;;;;5006272;28;21409;-65